N61US EHAM-LFMN
Flight info
| Callsign | N61US |
|---|---|
| Flight time | 1h 42m |
| Altitude | 41000 |
| Route | LOPIK N852 SUTAL DCT GTQ DCT POGOL DCT LASAT DCT MOROK DCT GILIR DCT GEVEA DCT KOGAS DCT MEDAM DCT VEVAR |
| Aircraft | C25B/M-SDE2E3FGHRWXY/LB1 |
Departure
| Time | 2026-04-18 06:51 |
|---|---|
| Airport | Amsterdam Airport Schiphol (EHAM) |
Arrival
| Time | 2026-04-18 08:34 |
|---|---|
| Airport | Nice-Côte d'Azur Airport (LFMN) |
| Time | Latitude | Longitude | Altitude | Speed | Heading |
|---|---|---|---|---|---|
| 2026-04-18 06:39 | 52.31149 | 4.80589 | -6 ft | 0 kts | 311° |
| 2026-04-18 06:47 | 52.31157 | 4.80595 | -6 ft | 3 kts | 94° |
| 2026-04-18 06:47 | 52.31131 | 4.80636 | -6 ft | 7 kts | 139° |
| 2026-04-18 06:48 | 52.31112 | 4.80681 | -6 ft | 7 kts | 76° |
| 2026-04-18 06:48 | 52.31156 | 4.80704 | -6 ft | 7 kts | 320° |
| 2026-04-18 06:48 | 52.31210 | 4.80605 | -6 ft | 13 kts | 312° |
| 2026-04-18 06:48 | 52.31247 | 4.80480 | -6 ft | 10 kts | 264° |
| 2026-04-18 06:49 | 52.31274 | 4.80464 | -6 ft | 7 kts | 41° |
| 2026-04-18 06:49 | 52.31310 | 4.80440 | -6 ft | 8 kts | 310° |
| 2026-04-18 06:49 | 52.31329 | 4.80405 | -6 ft | 0 kts | 311° |
| 2026-04-18 06:50 | 52.31370 | 4.80330 | -8 ft | 13 kts | 312° |
| 2026-04-18 06:50 | 52.31379 | 4.80267 | -7 ft | 0 kts | 221° |
| 2026-04-18 06:51 | 52.31094 | 4.79857 | -9 ft | 120 kts | 222° |
| 2026-04-18 06:51 | 52.30249 | 4.78729 | 678 ft | 181 kts | 219° |
| 2026-04-18 06:51 | 52.29117 | 4.77596 | 2067 ft | 202 kts | 199° |
| 2026-04-18 06:51 | 52.27672 | 4.77774 | 3537 ft | 221 kts | 165° |
| 2026-04-18 06:52 | 52.26207 | 4.78633 | 4999 ft | 225 kts | 169° |
| 2026-04-18 06:52 | 52.24655 | 4.79160 | 6497 ft | 234 kts | 169° |
| 2026-04-18 06:52 | 52.23063 | 4.80009 | 8081 ft | 243 kts | 166° |
| 2026-04-18 06:52 | 52.21451 | 4.80757 | 9379 ft | 244 kts | 168° |
| 2026-04-18 06:53 | 52.19874 | 4.81826 | 10327 ft | 255 kts | 151° |
| 2026-04-18 06:53 | 52.18475 | 4.83647 | 11319 ft | 262 kts | 138° |
| 2026-04-18 06:53 | 52.17417 | 4.86133 | 12275 ft | 271 kts | 122° |
| 2026-04-18 06:53 | 52.16503 | 4.88854 | 13231 ft | 276 kts | 123° |
| 2026-04-18 06:54 | 52.15378 | 4.91379 | 14145 ft | 275 kts | 140° |
| 2026-04-18 06:54 | 52.13901 | 4.93346 | 15016 ft | 274 kts | 153° |
| 2026-04-18 06:54 | 52.12239 | 4.94859 | 15888 ft | 276 kts | 155° |
| 2026-04-18 06:54 | 52.10575 | 4.96475 | 16790 ft | 280 kts | 155° |
| 2026-04-18 06:55 | 52.08885 | 4.98078 | 17692 ft | 283 kts | 155° |
| 2026-04-18 06:55 | 52.07169 | 4.99695 | 18579 ft | 287 kts | 155° |
| 2026-04-18 06:55 | 52.05425 | 5.01326 | 19351 ft | 291 kts | 155° |
| 2026-04-18 06:55 | 52.03666 | 5.02988 | 20130 ft | 294 kts | 156° |
| 2026-04-18 06:56 | 52.01879 | 5.04665 | 20914 ft | 298 kts | 156° |
| 2026-04-18 06:56 | 52.00073 | 5.06362 | 21703 ft | 302 kts | 156° |
| 2026-04-18 06:56 | 51.98236 | 5.08085 | 22489 ft | 307 kts | 156° |
| 2026-04-18 06:56 | 51.96373 | 5.09829 | 23275 ft | 311 kts | 157° |
| 2026-04-18 06:57 | 51.94485 | 5.11600 | 24004 ft | 315 kts | 157° |
| 2026-04-18 06:57 | 51.90478 | 5.14066 | 25347 ft | 310 kts | 172° |
| 2026-04-18 06:57 | 51.88388 | 5.15008 | 26058 ft | 313 kts | 172° |
| 2026-04-18 06:58 | 51.86281 | 5.15934 | 26779 ft | 315 kts | 172° |
| 2026-04-18 06:58 | 51.84153 | 5.16879 | 27479 ft | 318 kts | 172° |
| 2026-04-18 06:58 | 51.82029 | 5.17822 | 28388 ft | 315 kts | 172° |
| 2026-04-18 06:58 | 51.79927 | 5.18759 | 29311 ft | 312 kts | 173° |
| 2026-04-18 06:59 | 51.77842 | 5.19680 | 30232 ft | 309 kts | 173° |
| 2026-04-18 06:59 | 51.75772 | 5.20591 | 31022 ft | 307 kts | 173° |
| 2026-04-18 06:59 | 51.73728 | 5.21497 | 31817 ft | 303 kts | 173° |
| 2026-04-18 06:59 | 51.71701 | 5.22389 | 32608 ft | 301 kts | 173° |
| 2026-04-18 07:00 | 51.69689 | 5.23275 | 33392 ft | 298 kts | 173° |
| 2026-04-18 07:00 | 51.67699 | 5.24152 | 34180 ft | 295 kts | 173° |
| 2026-04-18 07:00 | 51.65721 | 5.25020 | 34818 ft | 294 kts | 173° |
| 2026-04-18 07:00 | 51.63741 | 5.25890 | 35400 ft | 295 kts | 173° |
| 2026-04-18 07:01 | 51.61759 | 5.26757 | 35987 ft | 295 kts | 173° |
| 2026-04-18 07:01 | 51.59778 | 5.27629 | 36563 ft | 295 kts | 173° |
| 2026-04-18 07:01 | 51.57798 | 5.28495 | 37138 ft | 296 kts | 173° |
| 2026-04-18 07:01 | 51.55805 | 5.29368 | 37719 ft | 296 kts | 174° |
| 2026-04-18 07:02 | 51.53845 | 5.30226 | 38282 ft | 296 kts | 173° |
| 2026-04-18 07:02 | 51.51854 | 5.31093 | 38850 ft | 296 kts | 174° |
| 2026-04-18 07:02 | 51.49859 | 5.31968 | 39270 ft | 297 kts | 173° |
| 2026-04-18 07:02 | 51.47855 | 5.32838 | 39657 ft | 300 kts | 173° |
| 2026-04-18 07:03 | 51.45830 | 5.33720 | 40041 ft | 302 kts | 173° |
| 2026-04-18 07:03 | 51.43802 | 5.34606 | 40419 ft | 304 kts | 172° |
| 2026-04-18 07:03 | 51.41754 | 5.35495 | 40799 ft | 306 kts | 172° |
| 2026-04-18 07:03 | 51.39692 | 5.36394 | 41171 ft | 308 kts | 172° |
| 2026-04-18 07:04 | 51.37576 | 5.37303 | 41207 ft | 323 kts | 171° |
| 2026-04-18 07:04 | 51.35360 | 5.38268 | 41220 ft | 337 kts | 171° |
| 2026-04-18 07:04 | 51.33053 | 5.39276 | 41222 ft | 350 kts | 171° |
| 2026-04-18 07:04 | 51.30675 | 5.40315 | 41218 ft | 356 kts | 171° |
| 2026-04-18 07:05 | 51.25887 | 5.42354 | 41213 ft | 354 kts | 174° |
| 2026-04-18 07:05 | 51.21057 | 5.43935 | 41207 ft | 355 kts | 174° |
| 2026-04-18 07:06 | 51.16262 | 5.45748 | 41204 ft | 358 kts | 170° |
| 2026-04-18 07:06 | 51.11456 | 5.47867 | 41205 ft | 358 kts | 171° |
| 2026-04-18 07:07 | 51.06643 | 5.49956 | 41209 ft | 359 kts | 170° |
| 2026-04-18 07:07 | 51.01819 | 5.52062 | 41213 ft | 359 kts | 170° |
| 2026-04-18 07:08 | 50.96993 | 5.54158 | 41214 ft | 360 kts | 170° |
| 2026-04-18 07:08 | 50.92160 | 5.56255 | 41213 ft | 360 kts | 170° |
| 2026-04-18 07:09 | 50.87312 | 5.58350 | 41211 ft | 361 kts | 170° |
| 2026-04-18 07:09 | 50.82459 | 5.60445 | 41209 ft | 362 kts | 170° |
| 2026-04-18 07:10 | 50.77604 | 5.62538 | 41203 ft | 362 kts | 170° |
| 2026-04-18 07:10 | 50.72771 | 5.64616 | 41203 ft | 362 kts | 170° |
| 2026-04-18 07:11 | 50.67904 | 5.66710 | 41203 ft | 363 kts | 169° |
| 2026-04-18 07:11 | 50.63053 | 5.68973 | 41202 ft | 363 kts | 169° |
| 2026-04-18 07:12 | 50.58201 | 5.71230 | 41196 ft | 365 kts | 166° |
| 2026-04-18 07:12 | 50.53434 | 5.74072 | 41200 ft | 366 kts | 165° |
| 2026-04-18 07:13 | 50.48673 | 5.76837 | 41195 ft | 367 kts | 165° |
| 2026-04-18 07:13 | 50.43882 | 5.79651 | 41197 ft | 367 kts | 165° |
| 2026-04-18 07:14 | 50.39083 | 5.82449 | 41194 ft | 368 kts | 165° |
| 2026-04-18 07:14 | 50.34282 | 5.85247 | 41192 ft | 368 kts | 165° |
| 2026-04-18 07:15 | 50.29479 | 5.88039 | 41196 ft | 368 kts | 165° |
| 2026-04-18 07:15 | 50.24693 | 5.90815 | 41196 ft | 369 kts | 165° |
| 2026-04-18 07:16 | 50.19877 | 5.93602 | 41196 ft | 369 kts | 165° |
| 2026-04-18 07:16 | 50.15051 | 5.96389 | 41194 ft | 369 kts | 165° |
| 2026-04-18 07:17 | 50.10230 | 5.99168 | 41196 ft | 370 kts | 165° |
| 2026-04-18 07:17 | 50.05401 | 6.01945 | 41198 ft | 370 kts | 165° |
| 2026-04-18 07:18 | 50.00571 | 6.04718 | 41197 ft | 370 kts | 165° |
| 2026-04-18 07:18 | 49.95734 | 6.07489 | 41195 ft | 371 kts | 165° |
| 2026-04-18 07:19 | 49.90922 | 6.10240 | 41197 ft | 371 kts | 165° |
| 2026-04-18 07:19 | 49.86074 | 6.13015 | 41197 ft | 372 kts | 163° |
| 2026-04-18 07:20 | 49.81320 | 6.16261 | 41198 ft | 373 kts | 161° |
| 2026-04-18 07:20 | 49.76556 | 6.19480 | 41201 ft | 374 kts | 161° |
| 2026-04-18 07:21 | 49.71786 | 6.22718 | 41205 ft | 374 kts | 161° |
| 2026-04-18 07:21 | 49.67015 | 6.25941 | 41203 ft | 374 kts | 161° |
| 2026-04-18 07:22 | 49.62268 | 6.29139 | 41199 ft | 374 kts | 161° |
| 2026-04-18 07:22 | 49.57455 | 6.32206 | 41205 ft | 374 kts | 162° |
| 2026-04-18 07:23 | 49.52646 | 6.35322 | 41202 ft | 375 kts | 161° |
| 2026-04-18 07:23 | 49.47824 | 6.38421 | 41202 ft | 375 kts | 162° |
| 2026-04-18 07:24 | 49.43041 | 6.41667 | 41197 ft | 376 kts | 160° |
| 2026-04-18 07:24 | 49.38243 | 6.44898 | 41194 ft | 376 kts | 160° |
| 2026-04-18 07:25 | 49.33456 | 6.48170 | 41190 ft | 377 kts | 160° |
| 2026-04-18 07:25 | 49.28655 | 6.51417 | 41189 ft | 377 kts | 160° |
| 2026-04-18 07:26 | 49.23860 | 6.54667 | 41194 ft | 377 kts | 160° |
| 2026-04-18 07:26 | 49.19046 | 6.57917 | 41194 ft | 378 kts | 160° |
| 2026-04-18 07:27 | 49.14267 | 6.61139 | 41197 ft | 378 kts | 160° |
| 2026-04-18 07:27 | 49.09454 | 6.64376 | 41192 ft | 378 kts | 160° |
| 2026-04-18 07:28 | 49.04639 | 6.67608 | 41193 ft | 378 kts | 160° |
| 2026-04-18 07:28 | 48.99788 | 6.70668 | 41200 ft | 374 kts | 168° |
| 2026-04-18 07:29 | 48.97251 | 6.71406 | 41196 ft | 369 kts | 179° |
| 2026-04-18 07:29 | 48.94695 | 6.71468 | 41199 ft | 365 kts | 186° |
| 2026-04-18 07:29 | 48.89599 | 6.71265 | 41202 ft | 366 kts | 185° |
| 2026-04-18 07:30 | 48.84543 | 6.71069 | 41200 ft | 366 kts | 186° |
| 2026-04-18 07:30 | 48.79442 | 6.70869 | 41198 ft | 366 kts | 185° |
| 2026-04-18 07:31 | 48.74337 | 6.70670 | 41197 ft | 367 kts | 185° |
| 2026-04-18 07:31 | 48.69227 | 6.70471 | 41203 ft | 367 kts | 186° |
| 2026-04-18 07:32 | 48.64118 | 6.70272 | 41200 ft | 367 kts | 186° |
| 2026-04-18 07:32 | 48.59008 | 6.70072 | 41199 ft | 367 kts | 185° |
| 2026-04-18 07:33 | 48.53895 | 6.69876 | 41198 ft | 368 kts | 186° |
| 2026-04-18 07:33 | 48.48773 | 6.69679 | 41199 ft | 368 kts | 185° |
| 2026-04-18 07:34 | 48.43686 | 6.69480 | 41193 ft | 368 kts | 185° |
| 2026-04-18 07:34 | 48.38562 | 6.69283 | 41195 ft | 368 kts | 185° |
| 2026-04-18 07:35 | 48.33431 | 6.69085 | 41193 ft | 369 kts | 185° |
| 2026-04-18 07:35 | 48.28301 | 6.68891 | 41199 ft | 369 kts | 185° |
| 2026-04-18 07:36 | 48.24029 | 6.68726 | 41198 ft | 369 kts | 185° |
| 2026-04-18 07:36 | 48.18893 | 6.68529 | 41196 ft | 369 kts | 185° |
| 2026-04-18 07:37 | 48.13758 | 6.68333 | 41198 ft | 369 kts | 185° |
| 2026-04-18 07:37 | 48.08613 | 6.68137 | 41197 ft | 370 kts | 185° |
| 2026-04-18 07:38 | 48.03474 | 6.67944 | 41201 ft | 369 kts | 185° |
| 2026-04-18 07:38 | 47.98338 | 6.67747 | 41201 ft | 369 kts | 185° |
| 2026-04-18 07:39 | 47.93192 | 6.67552 | 41202 ft | 370 kts | 185° |
| 2026-04-18 07:39 | 47.88075 | 6.67358 | 41204 ft | 369 kts | 185° |
| 2026-04-18 07:40 | 47.82932 | 6.67165 | 41201 ft | 370 kts | 185° |
| 2026-04-18 07:40 | 47.77792 | 6.66971 | 41204 ft | 369 kts | 185° |
| 2026-04-18 07:41 | 47.72654 | 6.66780 | 41209 ft | 369 kts | 185° |
| 2026-04-18 07:41 | 47.67519 | 6.66587 | 41208 ft | 369 kts | 185° |
| 2026-04-18 07:42 | 47.62395 | 6.66395 | 41204 ft | 369 kts | 185° |
| 2026-04-18 07:42 | 47.57247 | 6.66203 | 41206 ft | 369 kts | 185° |
| 2026-04-18 07:43 | 47.52102 | 6.66011 | 41203 ft | 369 kts | 185° |
| 2026-04-18 07:43 | 47.46964 | 6.65821 | 41204 ft | 369 kts | 185° |
| 2026-04-18 07:44 | 47.41872 | 6.65214 | 41207 ft | 364 kts | 197° |
| 2026-04-18 07:44 | 47.37281 | 6.62336 | 41204 ft | 356 kts | 217° |
| 2026-04-18 07:45 | 47.33490 | 6.57777 | 41210 ft | 354 kts | 223° |
| 2026-04-18 07:45 | 47.29731 | 6.53080 | 41216 ft | 354 kts | 223° |
| 2026-04-18 07:46 | 47.25982 | 6.48375 | 41225 ft | 354 kts | 223° |
| 2026-04-18 07:46 | 47.22221 | 6.43679 | 41226 ft | 354 kts | 223° |
| 2026-04-18 07:47 | 47.18461 | 6.38987 | 41224 ft | 355 kts | 223° |
| 2026-04-18 07:47 | 47.14696 | 6.34298 | 41222 ft | 355 kts | 223° |
| 2026-04-18 07:48 | 47.10925 | 6.29613 | 41214 ft | 355 kts | 223° |
| 2026-04-18 07:48 | 47.06897 | 6.25407 | 41208 ft | 360 kts | 210° |
| 2026-04-18 07:49 | 47.02066 | 6.23342 | 41204 ft | 368 kts | 189° |
| 2026-04-18 07:49 | 46.96961 | 6.22664 | 41209 ft | 368 kts | 189° |
| 2026-04-18 07:50 | 46.91897 | 6.21983 | 41209 ft | 368 kts | 189° |
| 2026-04-18 07:50 | 46.86788 | 6.21305 | 41205 ft | 368 kts | 189° |
| 2026-04-18 07:51 | 46.81684 | 6.20624 | 41203 ft | 368 kts | 189° |
| 2026-04-18 07:51 | 46.76575 | 6.19948 | 41201 ft | 368 kts | 189° |
| 2026-04-18 07:52 | 46.71471 | 6.19271 | 41199 ft | 368 kts | 189° |
| 2026-04-18 07:52 | 46.66366 | 6.18597 | 41203 ft | 368 kts | 189° |
| 2026-04-18 07:53 | 46.61259 | 6.17921 | 41201 ft | 368 kts | 189° |
| 2026-04-18 07:53 | 46.56152 | 6.17248 | 41202 ft | 368 kts | 189° |
| 2026-04-18 07:54 | 46.51080 | 6.16580 | 41203 ft | 368 kts | 189° |
| 2026-04-18 07:54 | 46.45964 | 6.15911 | 41201 ft | 368 kts | 189° |
| 2026-04-18 07:55 | 46.40867 | 6.15242 | 41205 ft | 368 kts | 189° |
| 2026-04-18 07:55 | 46.35763 | 6.14574 | 41205 ft | 368 kts | 189° |
| 2026-04-18 07:56 | 46.30659 | 6.13909 | 41203 ft | 368 kts | 188° |
| 2026-04-18 07:56 | 46.25532 | 6.13782 | 41206 ft | 373 kts | 175° |
| 2026-04-18 07:57 | 46.22994 | 6.14656 | 41203 ft | 378 kts | 164° |
| 2026-04-18 07:57 | 46.20546 | 6.16054 | 41207 ft | 379 kts | 161° |
| 2026-04-18 07:57 | 46.15658 | 6.18912 | 41213 ft | 379 kts | 161° |
| 2026-04-18 07:58 | 46.08319 | 6.23184 | 41209 ft | 379 kts | 161° |
| 2026-04-18 07:59 | 46.03458 | 6.26007 | 41208 ft | 380 kts | 161° |
| 2026-04-18 07:59 | 45.98556 | 6.28850 | 41207 ft | 380 kts | 161° |
| 2026-04-18 08:00 | 45.93642 | 6.31693 | 41203 ft | 380 kts | 161° |
| 2026-04-18 08:00 | 45.88729 | 6.34533 | 41208 ft | 381 kts | 161° |
| 2026-04-18 08:01 | 45.83813 | 6.37366 | 41207 ft | 381 kts | 161° |
| 2026-04-18 08:01 | 45.79109 | 6.40833 | 41202 ft | 384 kts | 147° |
| 2026-04-18 08:02 | 45.74762 | 6.45281 | 41206 ft | 384 kts | 147° |
| 2026-04-18 08:02 | 45.70400 | 6.49717 | 41206 ft | 384 kts | 147° |
| 2026-04-18 08:03 | 45.66036 | 6.54154 | 41204 ft | 385 kts | 147° |
| 2026-04-18 08:03 | 45.61669 | 6.58585 | 41208 ft | 385 kts | 147° |
| 2026-04-18 08:04 | 45.57325 | 6.62981 | 41209 ft | 385 kts | 147° |
| 2026-04-18 08:04 | 45.52948 | 6.67402 | 41200 ft | 386 kts | 147° |
| 2026-04-18 08:05 | 45.48566 | 6.71821 | 41208 ft | 386 kts | 147° |
| 2026-04-18 08:05 | 45.44171 | 6.76246 | 41208 ft | 386 kts | 147° |
| 2026-04-18 08:06 | 45.39785 | 6.80651 | 41214 ft | 386 kts | 147° |
| 2026-04-18 08:06 | 45.35388 | 6.85058 | 41211 ft | 387 kts | 147° |
| 2026-04-18 08:07 | 45.30983 | 6.89466 | 41203 ft | 387 kts | 147° |
| 2026-04-18 08:07 | 45.26393 | 6.93359 | 41210 ft | 383 kts | 161° |
| 2026-04-18 08:07 | 45.23836 | 6.94376 | 41207 ft | 380 kts | 173° |
| 2026-04-18 08:08 | 45.21225 | 6.94822 | 41215 ft | 378 kts | 176° |
| 2026-04-18 08:08 | 45.18624 | 6.95225 | 40972 ft | 384 kts | 176° |
| 2026-04-18 08:08 | 45.15926 | 6.95645 | 40484 ft | 397 kts | 176° |
| 2026-04-18 08:08 | 45.13136 | 6.96087 | 39961 ft | 409 kts | 176° |
| 2026-04-18 08:09 | 45.10269 | 6.96539 | 39413 ft | 420 kts | 176° |
| 2026-04-18 08:09 | 45.07327 | 6.96994 | 38843 ft | 430 kts | 176° |
| 2026-04-18 08:09 | 45.04332 | 6.97464 | 38225 ft | 435 kts | 175° |
| 2026-04-18 08:09 | 45.01351 | 6.97934 | 37647 ft | 425 kts | 176° |
| 2026-04-18 08:10 | 44.98438 | 6.98390 | 37089 ft | 416 kts | 176° |
| 2026-04-18 08:10 | 44.95585 | 6.98829 | 36543 ft | 409 kts | 176° |
| 2026-04-18 08:10 | 44.92766 | 6.99270 | 35993 ft | 404 kts | 176° |
| 2026-04-18 08:10 | 44.89996 | 6.99700 | 35467 ft | 399 kts | 176° |
| 2026-04-18 08:11 | 44.87244 | 7.00127 | 34943 ft | 396 kts | 176° |
| 2026-04-18 08:11 | 44.84521 | 7.00551 | 34422 ft | 393 kts | 176° |
| 2026-04-18 08:11 | 44.81812 | 7.00968 | 33875 ft | 390 kts | 176° |
| 2026-04-18 08:11 | 44.79131 | 7.01436 | 33351 ft | 386 kts | 173° |
| 2026-04-18 08:12 | 44.76533 | 7.02085 | 32851 ft | 383 kts | 172° |
| 2026-04-18 08:12 | 44.73916 | 7.02719 | 32351 ft | 379 kts | 172° |
| 2026-04-18 08:12 | 44.71318 | 7.03320 | 31850 ft | 378 kts | 173° |
| 2026-04-18 08:12 | 44.68727 | 7.03935 | 31348 ft | 378 kts | 172° |
| 2026-04-18 08:13 | 44.66122 | 7.04559 | 30848 ft | 379 kts | 172° |
| 2026-04-18 08:13 | 44.63522 | 7.05185 | 30349 ft | 379 kts | 172° |
| 2026-04-18 08:13 | 44.60925 | 7.05795 | 29810 ft | 378 kts | 172° |
| 2026-04-18 08:13 | 44.58339 | 7.06409 | 29305 ft | 376 kts | 172° |
| 2026-04-18 08:14 | 44.55764 | 7.07021 | 28813 ft | 377 kts | 172° |
| 2026-04-18 08:14 | 44.53174 | 7.07637 | 28318 ft | 378 kts | 172° |
| 2026-04-18 08:14 | 44.50571 | 7.08252 | 27814 ft | 380 kts | 172° |
| 2026-04-18 08:14 | 44.47989 | 7.08863 | 27314 ft | 381 kts | 172° |
| 2026-04-18 08:15 | 44.45369 | 7.09484 | 26811 ft | 383 kts | 172° |
| 2026-04-18 08:15 | 44.42733 | 7.10105 | 26305 ft | 384 kts | 171° |
| 2026-04-18 08:15 | 44.40085 | 7.10728 | 25797 ft | 386 kts | 172° |
| 2026-04-18 08:15 | 44.37426 | 7.11359 | 25285 ft | 390 kts | 171° |
| 2026-04-18 08:16 | 44.34736 | 7.11990 | 24771 ft | 395 kts | 171° |
| 2026-04-18 08:16 | 44.32005 | 7.12633 | 24242 ft | 400 kts | 171° |
| 2026-04-18 08:16 | 44.29250 | 7.13279 | 23704 ft | 403 kts | 171° |
| 2026-04-18 08:16 | 44.26474 | 7.13934 | 23127 ft | 404 kts | 171° |
| 2026-04-18 08:17 | 44.23698 | 7.14584 | 22592 ft | 404 kts | 171° |
| 2026-04-18 08:17 | 44.20959 | 7.15445 | 22055 ft | 403 kts | 161° |
| 2026-04-18 08:17 | 44.18380 | 7.16941 | 21558 ft | 400 kts | 156° |
| 2026-04-18 08:17 | 44.15807 | 7.18413 | 21054 ft | 399 kts | 157° |
| 2026-04-18 08:18 | 44.13253 | 7.19915 | 20561 ft | 398 kts | 156° |
| 2026-04-18 08:18 | 44.10709 | 7.21422 | 20062 ft | 397 kts | 156° |
| 2026-04-18 08:18 | 44.08169 | 7.22916 | 19571 ft | 396 kts | 156° |
| 2026-04-18 08:18 | 44.05635 | 7.24391 | 19064 ft | 394 kts | 157° |
| 2026-04-18 08:19 | 44.03150 | 7.25836 | 18592 ft | 392 kts | 156° |
| 2026-04-18 08:19 | 44.00916 | 7.27151 | 18116 ft | 390 kts | 156° |
| 2026-04-18 08:19 | 43.98423 | 7.28602 | 17623 ft | 387 kts | 156° |
| 2026-04-18 08:19 | 43.95969 | 7.30040 | 17219 ft | 382 kts | 157° |
| 2026-04-18 08:20 | 43.93523 | 7.31443 | 16797 ft | 379 kts | 157° |
| 2026-04-18 08:20 | 43.91093 | 7.32832 | 16389 ft | 375 kts | 157° |
| 2026-04-18 08:20 | 43.88692 | 7.34207 | 15984 ft | 373 kts | 157° |
| 2026-04-18 08:20 | 43.86300 | 7.35564 | 15584 ft | 370 kts | 157° |
| 2026-04-18 08:21 | 43.83943 | 7.36967 | 15188 ft | 366 kts | 153° |
| 2026-04-18 08:21 | 43.81841 | 7.38922 | 14794 ft | 363 kts | 140° |
| 2026-04-18 08:21 | 43.79900 | 7.41148 | 14412 ft | 361 kts | 139° |
| 2026-04-18 08:21 | 43.77964 | 7.43356 | 14034 ft | 360 kts | 139° |
| 2026-04-18 08:22 | 43.76040 | 7.45554 | 13726 ft | 357 kts | 139° |
| 2026-04-18 08:22 | 43.74137 | 7.47730 | 13406 ft | 353 kts | 139° |
| 2026-04-18 08:22 | 43.72105 | 7.49563 | 13125 ft | 349 kts | 158° |
| 2026-04-18 08:22 | 43.69743 | 7.50074 | 12925 ft | 339 kts | 178° |
| 2026-04-18 08:23 | 43.68197 | 7.50100 | 12713 ft | 332 kts | 180° |
| 2026-04-18 08:23 | 43.65908 | 7.50134 | 12325 ft | 326 kts | 178° |
| 2026-04-18 08:23 | 43.63666 | 7.50456 | 11914 ft | 323 kts | 170° |
| 2026-04-18 08:23 | 43.61469 | 7.51019 | 11512 ft | 319 kts | 170° |
| 2026-04-18 08:24 | 43.59273 | 7.51458 | 11105 ft | 317 kts | 173° |
| 2026-04-18 08:24 | 43.57086 | 7.51831 | 10691 ft | 316 kts | 173° |
| 2026-04-18 08:24 | 43.54911 | 7.52198 | 10272 ft | 314 kts | 176° |
| 2026-04-18 08:24 | 43.52751 | 7.51910 | 9844 ft | 312 kts | 192° |
| 2026-04-18 08:25 | 43.50708 | 7.50996 | 9421 ft | 306 kts | 207° |
| 2026-04-18 08:25 | 43.48935 | 7.49460 | 9024 ft | 297 kts | 218° |
| 2026-04-18 08:25 | 43.47509 | 7.47470 | 8638 ft | 289 kts | 232° |
| 2026-04-18 08:25 | 43.46442 | 7.45170 | 8256 ft | 282 kts | 245° |
| 2026-04-18 08:26 | 43.45791 | 7.42651 | 7891 ft | 277 kts | 256° |
| 2026-04-18 08:26 | 43.45379 | 7.40077 | 7529 ft | 274 kts | 258° |
| 2026-04-18 08:26 | 43.44945 | 7.37565 | 7175 ft | 272 kts | 257° |
| 2026-04-18 08:26 | 43.44526 | 7.35042 | 6815 ft | 267 kts | 257° |
| 2026-04-18 08:27 | 43.44112 | 7.32582 | 6461 ft | 262 kts | 257° |
| 2026-04-18 08:27 | 43.43710 | 7.30162 | 6113 ft | 257 kts | 257° |
| 2026-04-18 08:27 | 43.43311 | 7.27788 | 5782 ft | 253 kts | 256° |
| 2026-04-18 08:27 | 43.42939 | 7.25443 | 5453 ft | 249 kts | 261° |
| 2026-04-18 08:28 | 43.43022 | 7.23087 | 5123 ft | 247 kts | 281° |
| 2026-04-18 08:28 | 43.43564 | 7.20863 | 4762 ft | 246 kts | 298° |
| 2026-04-18 08:28 | 43.44572 | 7.18957 | 4350 ft | 248 kts | 312° |
| 2026-04-18 08:28 | 43.45811 | 7.17370 | 4005 ft | 240 kts | 329° |
| 2026-04-18 08:29 | 43.47304 | 7.16423 | 3694 ft | 233 kts | 343° |
| 2026-04-18 08:29 | 43.48859 | 7.16100 | 3392 ft | 222 kts | 0° |
| 2026-04-18 08:29 | 43.50370 | 7.15958 | 3106 ft | 212 kts | 357° |
| 2026-04-18 08:29 | 43.51807 | 7.15807 | 2987 ft | 198 kts | 359° |
| 2026-04-18 08:30 | 43.53132 | 7.15680 | 2851 ft | 189 kts | 358° |
| 2026-04-18 08:30 | 43.54447 | 7.15560 | 2514 ft | 191 kts | 359° |
| 2026-04-18 08:30 | 43.55773 | 7.15399 | 2132 ft | 192 kts | 356° |
| 2026-04-18 08:30 | 43.57126 | 7.15160 | 1906 ft | 193 kts | 355° |
| 2026-04-18 08:31 | 43.58357 | 7.14929 | 1580 ft | 172 kts | 354° |
| 2026-04-18 08:31 | 43.59491 | 7.14744 | 1286 ft | 140 kts | 0° |
| 2026-04-18 08:31 | 43.60377 | 7.14838 | 1179 ft | 122 kts | 15° |
| 2026-04-18 08:31 | 43.61120 | 7.15346 | 1025 ft | 120 kts | 36° |
| 2026-04-18 08:32 | 43.61749 | 7.16118 | 850 ft | 122 kts | 47° |
| 2026-04-18 08:32 | 43.62328 | 7.16976 | 653 ft | 123 kts | 47° |
| 2026-04-18 08:32 | 43.62929 | 7.17826 | 476 ft | 122 kts | 47° |
| 2026-04-18 08:32 | 43.63510 | 7.18639 | 348 ft | 115 kts | 46° |
| 2026-04-18 08:33 | 43.64077 | 7.19414 | 224 ft | 115 kts | 47° |
| 2026-04-18 08:33 | 43.64645 | 7.20208 | 75 ft | 115 kts | 47° |
| 2026-04-18 08:33 | 43.65175 | 7.20947 | 16 ft | 98 kts | 42° |
| 2026-04-18 08:33 | 43.65551 | 7.21453 | 19 ft | 50 kts | 50° |
| 2026-04-18 08:34 | 43.65791 | 7.21710 | 17 ft | 41 kts | 21° |
| 2026-04-18 08:34 | 43.65947 | 7.21775 | 16 ft | 15 kts | 14° |
| 2026-04-18 08:34 | 43.66057 | 7.21817 | 16 ft | 17 kts | 15° |
| 2026-04-18 08:34 | 43.66173 | 7.21807 | 16 ft | 18 kts | 325° |
| 2026-04-18 08:35 | 43.66264 | 7.21685 | 16 ft | 2 kts | 314° |
| 2026-04-18 08:35 | 43.66288 | 7.21651 | 16 ft | 14 kts | 316° |
| 2026-04-18 08:36 | 43.66367 | 7.21543 | 16 ft | 17 kts | 310° |
| 2026-04-18 08:36 | 43.66336 | 7.21412 | 16 ft | 16 kts | 224° |
| 2026-04-18 08:36 | 43.66252 | 7.21297 | 16 ft | 18 kts | 225° |
| 2026-04-18 08:36 | 43.66160 | 7.21169 | 16 ft | 20 kts | 224° |
| 2026-04-18 08:37 | 43.66059 | 7.21033 | 16 ft | 21 kts | 225° |
| 2026-04-18 08:37 | 43.65952 | 7.20886 | 16 ft | 22 kts | 224° |
| 2026-04-18 08:37 | 43.65835 | 7.20737 | 16 ft | 23 kts | 227° |
| 2026-04-18 08:37 | 43.65717 | 7.20575 | 16 ft | 24 kts | 224° |
| 2026-04-18 08:38 | 43.65614 | 7.20433 | 16 ft | 18 kts | 224° |
| 2026-04-18 08:38 | 43.65525 | 7.20310 | 16 ft | 14 kts | 227° |
| 2026-04-18 08:38 | 43.65488 | 7.20284 | 16 ft | 5 kts | 142° |
| 2026-04-18 08:38 | 43.65448 | 7.20340 | 16 ft | 0 kts | 135° |